Shortt Gap, VA (24647)

3:13 AM EST on December 28, 2014 (GMT -0500)
Jewell Ridge | Change Station
CLOSE
Current Station
Personal Weather Station
Location: Jewell Ridge, VA
Elevation: 2986 ft
Nearby Weather Stations

Elev 2986 ft 37.20 °N, 81.78 °W | Updated 14 minutes ago

Overcast
Overcast
47.3 °F
Feels Like 44 °F
N
7.8
Wind Variable Wind from WSW

Today
High -- | Low -- °F
--% Chance of Precip.
Yesterday
High -- | Low -- °F
Precip. -- in
7:40 AM 5:18 PM
Waxing Crescent, 45% visible
Pressure 30.05 in
Visibility 10.0 miles
Clouds Mostly Cloudy 2900 ft
Overcast 4100 ft
Windchill 44 °F
Dew Point 34 °F
Humidity 61%
Rainfall 0.00 in
Snow Depth Not available.
UV 0 out of 12
Pollen .10 out of 12
Air Quality Not available.
Flu Activity Not available.
METAR KJFZ 280755Z AUTO 28010G15KT 10SM BKN029 OVC041 09/M03 A3005 RMK AO2 T00901030

More Conditions Fewer Conditions

Pressure 30.05 in
Visibility 10.0 miles
Clouds Mostly Cloudy 2900 ft
Overcast 4100 ft
Windchill 44 °F
Dew Point 34 °F
Humidity 61%
Rainfall 0.00 in
Snow Depth Not available.
UV 0 out of 12
Pollen .10 out of 12
Air Quality Not available.
Flu Activity Not available.
METAR KJFZ 280755Z AUTO 28010G15KT 10SM BKN029 OVC041 09/M03 A3005 RMK AO2 T00901030

More Conditions Fewer Conditions

10-Day Weather Forecast

Almanac

Astronomy

Dec. 28, 2014 Rise Set
Actual Time
Civil Twilight
Nautical Twilight
Astronomical Twilight
Moon
Length of Visible Light
Length of Day
Tomorrow will be .
, % of the Moon is Illuminated

Today's Extremes

State Highs State Lows

Community

WunderPhotos

Upload Photos

1,781,210 photos uploaded!

WunderBlogs® & News

Nearby

Air Quality

  Air Quality AQ Index Pollutant
Not available.

Snow Depth

Station Depth Elevation

Earthquake Activity

City Distance Mag. Time & Date
Minimum magnitude displayed is 2.5.

Coastal Water Temperatures

Place Temperature

Nearby Weather Stations